createdAt,value
2022-09-12T00:01:27.559Z,98381.34
2022-09-12T00:03:58.782Z,98377.31
2022-09-12T00:06:30.583Z,98375.88
2022-09-12T00:09:01.753Z,98368.28
2022-09-12T00:11:30.610Z,98373.94
2022-09-12T00:14:01.306Z,98374.34
2022-09-12T00:16:33.586Z,98368.44
2022-09-12T00:19:02.334Z,98363.66
2022-09-12T00:21:31.025Z,98373.34
2022-09-12T00:23:59.445Z,98369.19
2022-09-12T00:26:27.864Z,98367.63
2022-09-12T00:28:56.142Z,98366.94
2022-09-12T00:31:27.039Z,98368.09
2022-09-12T00:34:00.551Z,98373.59
2022-09-12T00:36:31.426Z,98363.03
2022-09-12T00:38:59.998Z,98365.34
2022-09-12T00:41:31.115Z,98365.34
2022-09-12T00:44:01.559Z,98361.28
2022-09-12T00:46:36.477Z,98362.19
2022-09-12T00:49:13.360Z,98362.72
2022-09-12T00:51:47.819Z,98356.53
2022-09-12T00:54:21.734Z,98353.72
2022-09-12T00:56:54.289Z,98354.97
2022-09-12T00:59:30.389Z,98345.63
2022-09-12T01:01:59.009Z,98348.53
2022-09-12T01:04:30.098Z,98349.81
2022-09-12T01:06:59.936Z,98345.63
2022-09-12T01:09:28.322Z,98345.22
2022-09-12T01:11:57.113Z,98346.66
2022-09-12T01:14:25.978Z,98341.75
2022-09-12T01:16:54.472Z,98340.00
2022-09-12T01:20:05.389Z,98340.38
2022-09-12T01:23:07.551Z,98332.09
2022-09-12T01:25:52.635Z,98338.19
2022-09-12T01:28:39.520Z,98323.56
2022-09-12T01:31:15.654Z,98324.63
2022-09-12T01:34:10.703Z,98322.72
2022-09-12T01:36:52.918Z,98322.63
2022-09-12T01:39:31.484Z,98313.09
2022-09-12T01:42:11.114Z,98320.13
2022-09-12T01:44:48.067Z,98314.03
2022-09-12T01:47:24.049Z,98328.16
2022-09-12T01:50:01.902Z,98320.13
2022-09-12T01:52:38.375Z,98304.78
2022-09-12T01:55:12.875Z,98305.59
2022-09-12T01:57:50.775Z,98305.59
2022-09-12T02:00:19.448Z,98308.19
2022-09-12T02:02:54.891Z,98305.59
2022-09-12T02:05:29.365Z,98299.59
2022-09-12T02:08:05.098Z,98305.69
2022-09-12T02:10:38.113Z,98303.22
2022-09-12T02:13:12.649Z,98311.13
2022-09-12T02:15:47.095Z,98295.63
2022-09-12T02:18:20.726Z,98293.22
2022-09-12T02:20:50.525Z,98303.53
2022-09-12T02:23:23.395Z,98303.72
2022-09-12T02:25:56.119Z,98297.69
2022-09-12T02:28:29.266Z,98294.47
2022-09-12T02:31:10.693Z,98291.13
2022-09-12T02:33:50.448Z,98293.03
2022-09-12T02:36:32.885Z,98289.69
2022-09-12T02:39:01.585Z,98290.94
2022-09-12T02:41:30.152Z,98292.69
2022-09-12T02:43:58.848Z,98289.66
2022-09-12T02:46:34.764Z,98284.69
2022-09-12T02:49:04.618Z,98285.72
2022-09-12T02:51:33.044Z,98283.34
2022-09-12T02:54:02.163Z,98288.59
2022-09-12T02:56:32.261Z,98291.31
2022-09-12T02:59:04.303Z,98284.47
2022-09-12T03:02:01.364Z,98280.59
2022-09-12T03:05:07.436Z,98286.19
2022-09-12T03:07:47.932Z,98282.31
2022-09-12T03:10:25.856Z,98285.66
2022-09-12T03:13:04.870Z,98287.50
2022-09-12T03:15:46.788Z,98279.19
2022-09-12T03:18:37.526Z,98283.22
2022-09-12T03:21:14.427Z,98278.34
2022-09-12T03:23:52.005Z,98283.72
2022-09-12T03:26:28.847Z,98282.91
2022-09-12T03:28:59.180Z,98289.22
2022-09-12T03:31:27.640Z,98288.00
2022-09-12T03:33:55.853Z,98285.34
2022-09-12T03:36:28.557Z,98290.47
2022-09-12T03:38:57.212Z,98287.03
2022-09-12T03:41:25.567Z,98291.78
2022-09-12T03:43:53.782Z,98288.63
2022-09-12T03:46:21.990Z,98285.28
2022-09-12T03:48:50.752Z,98285.69
2022-09-12T03:51:19.068Z,98289.47
2022-09-12T03:53:48.651Z,98293.53
2022-09-12T03:56:17.916Z,98289.41
2022-09-12T03:58:46.747Z,98280.88
2022-09-12T04:01:21.814Z,98287.00
2022-09-12T04:03:52.650Z,98289.41
2022-09-12T04:06:23.237Z,98287.44
2022-09-12T04:08:58.629Z,98286.41
2022-09-12T04:11:26.989Z,98287.16
2022-09-12T04:13:55.812Z,98283.66
2022-09-12T04:16:24.161Z,98286.34
2022-09-12T04:19:29.842Z,98284.34
2022-09-12T04:21:58.170Z,98284.56
2022-09-12T04:24:30.720Z,98290.66
2022-09-12T04:26:59.230Z,98284.56
2022-09-12T04:29:27.745Z,98280.28
2022-09-12T04:31:56.005Z,98284.00
2022-09-12T04:34:24.408Z,98279.75
2022-09-12T04:36:52.809Z,98280.59
2022-09-12T04:39:21.014Z,98287.53
2022-09-12T04:41:50.713Z,98282.34
2022-09-12T04:44:19.056Z,98283.28
2022-09-12T04:46:48.584Z,98275.88
2022-09-12T04:49:19.340Z,98278.56
2022-09-12T04:51:48.064Z,98282.94
2022-09-12T04:54:19.232Z,98284.03
2022-09-12T04:56:51.282Z,98286.63
2022-09-12T04:59:22.513Z,98273.75
2022-09-12T05:01:51.263Z,98269.50
2022-09-12T05:04:20.074Z,98281.72
2022-09-12T05:06:48.387Z,98282.56
2022-09-12T05:09:16.874Z,98281.09
2022-09-12T05:12:03.909Z,98286.28
2022-09-12T05:14:35.192Z,98282.16
2022-09-12T05:17:05.940Z,98281.34
2022-09-12T05:19:34.722Z,98284.97
2022-09-12T05:22:02.976Z,98275.50
2022-09-12T05:24:31.207Z,98285.03
2022-09-12T05:26:59.822Z,98281.63
2022-09-12T05:29:28.085Z,98281.63
2022-09-12T05:31:57.771Z,98285.16
2022-09-12T05:34:27.799Z,98281.81
2022-09-12T05:36:56.103Z,98287.84
2022-09-12T05:39:24.662Z,98287.75
2022-09-12T05:41:52.881Z,98290.97
2022-09-12T05:44:21.382Z,98301.22
2022-09-12T05:46:51.359Z,98290.03
2022-09-12T05:49:21.425Z,98300.28
2022-09-12T05:51:50.777Z,98298.63
2022-09-12T05:54:21.240Z,98298.63
2022-09-12T05:56:49.940Z,98295.22
2022-09-12T05:59:21.310Z,98296.22
2022-09-12T06:01:49.892Z,98296.16
2022-09-12T06:04:20.038Z,98301.41
2022-09-12T06:06:48.770Z,98301.41
2022-09-12T06:09:18.559Z,98305.59
2022-09-12T06:11:48.059Z,98302.28
2022-09-12T06:14:19.550Z,98290.03
2022-09-12T06:16:48.569Z,98291.91
2022-09-12T06:19:21.624Z,98295.34
2022-09-12T06:21:51.516Z,98297.16
2022-09-12T06:24:22.632Z,98298.09
2022-09-12T06:26:52.608Z,98297.09
2022-09-12T06:29:21.158Z,98296.06
2022-09-12T06:31:49.406Z,98299.22
2022-09-12T06:34:18.058Z,98288.84
2022-09-12T06:36:49.614Z,98287.00
2022-09-12T06:39:19.958Z,98294.59
2022-09-12T06:41:49.384Z,98288.28
2022-09-12T06:44:20.848Z,98300.94
2022-09-12T06:46:49.764Z,98286.06
2022-09-12T06:49:18.558Z,98284.00
2022-09-12T06:51:49.173Z,98283.81
2022-09-12T06:54:17.869Z,98288.72
2022-09-12T06:56:46.380Z,98292.88
2022-09-12T06:59:14.814Z,98299.53
2022-09-12T07:01:43.310Z,98299.06
2022-09-12T07:04:12.540Z,98299.53
2022-09-12T07:06:44.494Z,98298.59
2022-09-12T07:09:17.209Z,98299.94
2022-09-12T07:11:46.359Z,98300.81
2022-09-12T07:14:16.159Z,98301.34
2022-09-12T07:16:44.985Z,98285.91
2022-09-12T07:19:13.505Z,98288.00
2022-09-12T07:21:42.185Z,98284.31
2022-09-12T07:24:11.548Z,98289.28
2022-09-12T07:26:42.576Z,98296.03
2022-09-12T07:32:06.595Z,98294.44
2022-09-12T07:34:35.755Z,98301.41
2022-09-12T07:37:04.564Z,98297.50
2022-09-12T07:39:33.357Z,98298.97
2022-09-12T07:42:03.207Z,98302.06
2022-09-12T07:44:31.478Z,98288.38
2022-09-12T07:46:59.861Z,98292.25
2022-09-12T07:49:28.270Z,98286.50
2022-09-12T07:51:56.555Z,98287.78
2022-09-12T07:54:25.157Z,98285.19
2022-09-12T07:56:53.380Z,98286.00
2022-09-12T07:59:48.476Z,98292.16
2022-09-12T08:02:17.408Z,98287.72
2022-09-12T08:04:48.449Z,98288.41
2022-09-12T08:07:18.296Z,98293.22
2022-09-12T08:09:47.255Z,98291.38
2022-09-12T08:12:16.513Z,98291.88
2022-09-12T08:14:46.227Z,98290.75
2022-09-12T08:17:14.526Z,98288.56
2022-09-12T08:19:43.687Z,98282.22
2022-09-12T08:22:12.236Z,98280.16
2022-09-12T08:24:40.952Z,98283.38
2022-09-12T08:27:09.405Z,98280.44
2022-09-12T08:29:37.764Z,98285.44
2022-09-12T08:32:07.688Z,98276.38
2022-09-12T08:34:36.055Z,98277.66
2022-09-12T08:37:04.387Z,98277.94
2022-09-12T08:39:33.670Z,98272.47
2022-09-12T08:42:04.828Z,98277.22
2022-09-12T08:44:48.047Z,98279.84
2022-09-12T08:47:23.763Z,98279.72
2022-09-12T08:50:00.545Z,98273.16
2022-09-12T08:52:36.455Z,98272.69
2022-09-12T08:55:24.843Z,98266.31
2022-09-12T08:57:53.805Z,98269.44
2022-09-12T09:00:22.682Z,98267.53
2022-09-12T09:03:53.612Z,98259.03
2022-09-12T09:06:39.947Z,98260.47
2022-09-12T09:09:20.024Z,98258.84
2022-09-12T09:12:04.606Z,98261.94
2022-09-12T09:14:51.980Z,98258.41
2022-09-12T09:17:26.337Z,98259.63
2022-09-12T09:20:05.373Z,98255.78
2022-09-12T09:22:44.418Z,98254.03
2022-09-12T09:25:22.845Z,98254.28
2022-09-12T09:27:59.387Z,98251.59
2022-09-12T09:30:28.676Z,98252.19
2022-09-12T09:33:01.842Z,98249.69
2022-09-12T09:35:44.758Z,98245.69
2022-09-12T09:38:30.876Z,98253.16
2022-09-12T09:41:27.959Z,98255.16
2022-09-12T09:43:58.198Z,98252.47
2022-09-12T09:46:27.840Z,98254.13
2022-09-12T09:48:59.610Z,98245.34
2022-09-12T09:51:36.114Z,98252.56
2022-09-12T09:54:14.782Z,98252.09
2022-09-12T09:56:44.250Z,98251.38
2022-09-12T09:59:14.101Z,98246.28
2022-09-12T10:01:48.238Z,98249.84
2022-09-12T10:04:22.454Z,98249.47
2022-09-12T10:06:55.304Z,98254.47
2022-09-12T10:09:27.187Z,98242.47
2022-09-12T10:11:57.635Z,98242.44
2022-09-12T10:14:38.644Z,98236.75
2022-09-12T10:17:34.305Z,98231.72
2022-09-12T10:20:20.953Z,98235.06
2022-09-12T10:22:51.483Z,98222.47
2022-09-12T10:25:21.317Z,98222.41
2022-09-12T10:27:56.248Z,98232.81
2022-09-12T10:30:28.301Z,98231.09
2022-09-12T10:33:07.423Z,98237.22
2022-09-12T10:35:47.043Z,98232.94
2022-09-12T10:38:23.644Z,98225.72
2022-09-12T10:41:00.128Z,98224.94
2022-09-12T10:43:33.042Z,98231.06
2022-09-12T10:46:25.267Z,98216.50
2022-09-12T10:49:15.819Z,98210.88
2022-09-12T10:51:44.262Z,98205.50
2022-09-12T10:54:17.937Z,98202.53
2022-09-12T10:57:02.996Z,98204.50
2022-09-12T10:59:35.030Z,98205.88
2022-09-12T11:02:16.195Z,98202.59
2022-09-12T11:05:00.718Z,98192.16
2022-09-12T11:07:43.792Z,98185.59
2022-09-12T11:10:36.143Z,98187.41
2022-09-12T11:13:25.067Z,98186.31
2022-09-12T11:16:19.949Z,98182.88
2022-09-12T11:19:23.453Z,98177.94
2022-09-12T11:22:10.562Z,98178.19
2022-09-12T11:25:13.079Z,98174.66
2022-09-12T11:28:18.334Z,98165.69
2022-09-12T11:31:05.214Z,98172.16
2022-09-12T11:33:44.357Z,98160.03
2022-09-12T11:36:28.539Z,98156.72
2022-09-12T11:39:07.693Z,98163.19
2022-09-12T11:41:39.709Z,98159.59
2022-09-12T11:44:18.556Z,98147.06
2022-09-12T11:46:51.689Z,98149.25
2022-09-12T11:49:35.558Z,98151.00
2022-09-12T11:52:12.776Z,98146.63
2022-09-12T11:54:49.014Z,98150.66
2022-09-12T11:57:29.147Z,98146.56
2022-09-12T12:00:05.364Z,98147.69
2022-09-12T12:02:41.353Z,98134.94
2022-09-12T12:05:21.978Z,98137.47
2022-09-12T12:07:56.224Z,98134.63
2022-09-12T12:10:36.101Z,98126.00
2022-09-12T12:13:13.896Z,98127.25
2022-09-12T12:15:50.585Z,98120.59
2022-09-12T12:18:25.378Z,98122.22
2022-09-12T12:20:57.721Z,98124.97
2022-09-12T12:23:35.109Z,98119.56
2022-09-12T12:26:07.430Z,98117.97
2022-09-12T12:29:04.483Z,98111.44
2022-09-12T12:32:23.966Z,98107.00
2022-09-12T12:35:02.882Z,98104.91
2022-09-12T12:37:54.443Z,98105.59
2022-09-12T12:40:29.744Z,98100.13
2022-09-12T12:43:15.884Z,98101.94
2022-09-12T12:46:13.410Z,98100.75
2022-09-12T12:49:12.865Z,98100.56
2022-09-12T12:51:58.028Z,98093.09
2022-09-12T12:54:34.778Z,98090.59
2022-09-12T12:57:17.518Z,98090.31
2022-09-12T12:59:55.304Z,98092.28
2022-09-12T13:02:31.195Z,98084.16
2022-09-12T13:05:06.313Z,98084.72
2022-09-12T13:07:40.186Z,98077.56
2022-09-12T13:10:12.101Z,98069.06
2022-09-12T13:12:49.241Z,98075.31
2022-09-12T13:15:50.547Z,98062.19
2022-09-12T13:18:31.840Z,98063.00
2022-09-12T13:21:11.321Z,98059.38
2022-09-12T13:23:42.207Z,98059.41
2022-09-12T13:26:14.945Z,98051.84
2022-09-12T13:28:44.299Z,98054.84
2022-09-12T13:31:22.102Z,98051.19
2022-09-12T13:33:54.737Z,98053.16
2022-09-12T13:37:12.741Z,98045.84
2022-09-12T13:39:49.733Z,98048.16
2022-09-12T13:42:42.047Z,98033.56
2022-09-12T13:45:17.258Z,98023.91
2022-09-12T13:47:47.909Z,98026.69
2022-09-12T13:50:20.191Z,98030.03
2022-09-12T13:52:53.720Z,98027.22
2022-09-12T13:55:34.255Z,98024.19
2022-09-12T13:58:05.198Z,98019.09
2022-09-12T14:00:35.971Z,98023.19
2022-09-12T14:03:45.342Z,98008.91
2022-09-12T14:06:14.636Z,98009.38
2022-09-12T14:08:45.009Z,98002.66
2022-09-12T14:11:22.027Z,98006.16
2022-09-12T14:13:51.141Z,97991.63
2022-09-12T14:16:21.127Z,97998.34
2022-09-12T14:18:51.674Z,97999.94
2022-09-12T14:21:36.196Z,97992.22
2022-09-12T14:24:08.448Z,97994.06
2022-09-12T14:26:40.514Z,97983.63
2022-09-12T14:29:10.163Z,97984.41
2022-09-12T14:31:41.211Z,97973.97
2022-09-12T14:34:13.204Z,97986.72
2022-09-12T14:36:47.548Z,97975.22
2022-09-12T14:39:30.395Z,97976.19
2022-09-12T14:42:06.176Z,97981.75
2022-09-12T14:44:36.210Z,97973.06
2022-09-12T14:47:16.045Z,97977.59
2022-09-12T14:49:44.636Z,97975.31
2022-09-12T14:52:27.673Z,97967.72
2022-09-12T14:55:03.532Z,97967.97
2022-09-12T14:57:38.843Z,97969.88
2022-09-12T15:00:21.427Z,97962.59
2022-09-12T15:02:50.945Z,97972.41
2022-09-12T15:05:23.654Z,97961.00
2022-09-12T15:07:58.924Z,97957.06
2022-09-12T15:10:32.310Z,97958.31
2022-09-12T15:13:20.621Z,97963.34
2022-09-12T15:15:52.232Z,97955.78
2022-09-12T15:18:23.349Z,97949.91
2022-09-12T15:21:02.055Z,97946.50
2022-09-12T15:23:40.364Z,97942.31
2022-09-12T15:26:15.980Z,97943.59
2022-09-12T15:28:46.075Z,97942.34
2022-09-12T15:31:23.687Z,97945.72
2022-09-12T15:33:53.449Z,97945.59
2022-09-12T15:36:25.965Z,97934.69
2022-09-12T15:38:54.739Z,97931.19
2022-09-12T15:41:32.986Z,97930.25
2022-09-12T15:44:01.458Z,97938.16
2022-09-12T15:46:29.838Z,97926.41
2022-09-12T15:48:58.108Z,97929.31
2022-09-12T15:51:26.533Z,97934.28
2022-09-12T15:53:54.843Z,97917.16
2022-09-12T15:56:27.900Z,97914.38
2022-09-12T15:58:59.543Z,97910.50
2022-09-12T16:01:35.833Z,97907.81
2022-09-12T16:04:23.485Z,97908.53
2022-09-12T16:06:52.590Z,97906.25
2022-09-12T16:09:22.649Z,97909.25
2022-09-12T16:11:54.722Z,97904.28
2022-09-12T16:14:23.166Z,97901.47
2022-09-12T16:16:57.636Z,97906.28
2022-09-12T16:19:26.058Z,97896.06
2022-09-12T16:21:54.440Z,97893.88
2022-09-12T16:24:23.109Z,97891.44
2022-09-12T16:26:59.177Z,97890.34
2022-09-12T16:29:29.378Z,97887.69
2022-09-12T16:31:58.192Z,97891.53
2022-09-12T16:34:26.844Z,97888.50
2022-09-12T16:36:55.727Z,97883.63
2022-09-12T16:39:24.113Z,97886.63
2022-09-12T16:41:52.378Z,97886.53
2022-09-12T16:44:23.756Z,97882.34
2022-09-12T16:46:54.333Z,97880.47
2022-09-12T16:49:22.803Z,97876.88
2022-09-12T16:51:51.236Z,97886.53
2022-09-12T16:54:19.729Z,97882.19
2022-09-12T16:56:49.492Z,97878.66
2022-09-12T16:59:17.857Z,97882.25
2022-09-12T17:01:47.649Z,97883.28
2022-09-12T17:04:15.962Z,97881.03
2022-09-12T17:06:45.076Z,97886.94
2022-09-12T17:09:18.354Z,97880.88
2022-09-12T17:11:49.561Z,97886.41
2022-09-12T17:14:17.901Z,97888.28
2022-09-12T17:16:51.876Z,97887.88
2022-09-12T17:19:24.364Z,97892.13
2022-09-12T17:21:52.791Z,97885.09
2022-09-12T17:24:28.680Z,97879.28
2022-09-12T17:26:59.262Z,97883.13
2022-09-12T17:29:28.773Z,97885.25
2022-09-12T17:32:01.204Z,97877.53
2022-09-12T17:34:31.337Z,97882.31
2022-09-12T17:37:00.578Z,97888.53
2022-09-12T17:39:29.047Z,97885.31
2022-09-12T17:41:58.889Z,97895.19
2022-09-12T17:44:29.772Z,97880.53
2022-09-12T17:46:58.092Z,97887.94
2022-09-12T17:49:28.311Z,97885.28
2022-09-12T17:51:57.869Z,97896.16
2022-09-12T17:54:27.602Z,97898.22
2022-09-12T17:56:56.414Z,97894.56
2022-09-12T17:59:24.940Z,97905.78
2022-09-12T18:02:11.059Z,97905.56
2022-09-12T18:04:41.160Z,97901.03
2022-09-12T18:07:09.540Z,97901.03
2022-09-12T18:09:37.867Z,97906.09
2022-09-12T18:12:07.236Z,97914.66
2022-09-12T18:14:36.043Z,97906.47
2022-09-12T18:17:04.631Z,97904.56
2022-09-12T18:19:33.106Z,97912.25
2022-09-12T18:22:03.383Z,97896.91
2022-09-12T18:24:31.582Z,97908.06
2022-09-12T18:27:01.808Z,97910.47
2022-09-12T18:29:30.010Z,97905.84
2022-09-12T18:31:58.509Z,97910.69
2022-09-12T18:34:27.336Z,97914.69
2022-09-12T18:36:55.991Z,97908.09
2022-09-12T18:39:27.829Z,97913.75
2022-09-12T18:41:57.034Z,97914.06
2022-09-12T18:44:25.677Z,97916.38
2022-09-12T18:46:54.046Z,97918.72
2022-09-12T18:49:24.223Z,97916.56
2022-09-12T18:51:52.891Z,97913.59
2022-09-12T18:54:21.459Z,97912.72
2022-09-12T18:56:51.141Z,97909.94
2022-09-12T18:59:19.431Z,97916.50
2022-09-12T19:01:48.110Z,97918.81
2022-09-12T19:04:16.589Z,97917.09
2022-09-12T19:06:48.883Z,97910.06
2022-09-12T19:09:20.551Z,97910.38
2022-09-12T19:11:50.523Z,97918.56
2022-09-12T19:14:22.616Z,97919.47
2022-09-12T19:16:52.041Z,97919.84
2022-09-12T19:19:20.896Z,97923.03
2022-09-12T19:21:49.357Z,97920.28
2022-09-12T19:24:17.894Z,97922.84
2022-09-12T19:26:46.683Z,97923.06
2022-09-12T19:29:17.385Z,97930.28
2022-09-12T19:31:46.671Z,97920.78
2022-09-12T19:34:15.767Z,97912.75
2022-09-12T19:36:45.727Z,97915.47
2022-09-12T19:39:16.093Z,97911.63
2022-09-12T19:41:45.172Z,97913.66
2022-09-12T19:44:13.615Z,97914.72
2022-09-12T19:46:43.437Z,97914.13
2022-09-12T19:49:13.213Z,97911.91
2022-09-12T19:51:42.011Z,97909.66
2022-09-12T19:54:10.582Z,97912.34
2022-09-12T19:56:38.901Z,97919.50
2022-09-12T19:59:07.263Z,97917.53
2022-09-12T20:01:37.048Z,97916.56
2022-09-12T20:04:08.145Z,97913.81
2022-09-12T20:06:37.153Z,97909.19
2022-09-12T20:09:05.907Z,97911.88
2022-09-12T20:11:34.174Z,97916.53
2022-09-12T20:14:02.783Z,97921.19
2022-09-12T20:16:33.125Z,97924.47
2022-09-12T20:19:06.008Z,97913.97
2022-09-12T20:21:37.181Z,97919.94
2022-09-12T20:24:08.409Z,97921.41
2022-09-12T20:26:37.468Z,97919.91
2022-09-12T20:29:07.069Z,97919.28
2022-09-12T20:31:37.305Z,97915.00
2022-09-12T20:34:06.724Z,97918.97
2022-09-12T20:36:36.735Z,97909.94
2022-09-12T20:39:05.621Z,97898.25
2022-09-12T20:41:36.308Z,97899.56
2022-09-12T20:44:04.873Z,97888.72
2022-09-12T20:46:33.416Z,97891.03
2022-09-12T20:49:01.926Z,97895.44
2022-09-12T20:51:30.471Z,97893.63
2022-09-12T20:54:03.522Z,97886.88
2022-09-12T20:56:34.059Z,97885.56
2022-09-12T20:59:02.728Z,97885.56
2022-09-12T21:01:32.305Z,97899.16
2022-09-12T21:04:01.722Z,97904.41
2022-09-12T21:06:30.301Z,97892.41
2022-09-12T21:09:00.366Z,97890.13
2022-09-12T21:11:29.387Z,97896.16
2022-09-12T21:13:58.307Z,97894.16
2022-09-12T21:16:26.601Z,97897.88
2022-09-12T21:18:57.297Z,97891.91
2022-09-12T21:21:26.806Z,97898.59
2022-09-12T21:24:02.275Z,97900.88
2022-09-12T21:26:30.865Z,97902.81
2022-09-12T21:28:59.845Z,97904.13
2022-09-12T21:31:28.141Z,97905.53
2022-09-12T21:33:56.485Z,97904.34
2022-09-12T21:36:26.080Z,97901.06
2022-09-12T21:38:54.354Z,97898.44
2022-09-12T21:41:24.025Z,97905.28
2022-09-12T21:43:52.262Z,97911.13
2022-09-12T21:46:20.632Z,97916.50
2022-09-12T21:48:49.017Z,97909.22
2022-09-12T21:51:17.424Z,97897.91
2022-09-12T21:53:46.302Z,97891.03
2022-09-12T21:56:14.739Z,97885.94
2022-09-12T21:58:44.549Z,97886.25
2022-09-12T22:01:13.404Z,97899.66
2022-09-12T22:03:44.764Z,97899.28
2022-09-12T22:06:14.634Z,97894.47
2022-09-12T22:08:43.172Z,97888.88
2022-09-12T22:11:11.757Z,97890.97
2022-09-12T22:13:42.699Z,97884.16
2022-09-12T22:16:13.146Z,97883.09
2022-09-12T22:18:41.488Z,97876.53
2022-09-12T22:21:13.369Z,97869.94
2022-09-12T22:23:59.374Z,97866.66
2022-09-12T22:26:28.257Z,97869.41
2022-09-12T22:28:57.197Z,97867.25
2022-09-12T22:31:28.192Z,97863.16
2022-09-12T22:33:57.293Z,97847.72
2022-09-12T22:36:30.510Z,97849.81
2022-09-12T22:38:59.776Z,97841.44
2022-09-12T22:41:28.386Z,97836.47
2022-09-12T22:43:57.649Z,97836.47
2022-09-12T22:46:30.443Z,97833.19
2022-09-12T22:48:59.180Z,97834.59
2022-09-12T22:51:28.702Z,97838.50
2022-09-12T22:53:57.116Z,97844.03
2022-09-12T22:56:26.247Z,97840.06
2022-09-12T22:58:55.055Z,97844.91
2022-09-12T23:01:23.920Z,97839.50
2022-09-12T23:03:53.873Z,97849.66
2022-09-12T23:06:22.219Z,97856.75
2022-09-12T23:08:50.644Z,97862.56
2022-09-12T23:11:21.421Z,97859.69
2022-09-12T23:13:51.653Z,97852.59
2022-09-12T23:16:23.194Z,97854.78
2022-09-12T23:18:53.391Z,97855.91
2022-09-12T23:21:22.682Z,97852.22
2022-09-12T23:23:51.602Z,97856.34
2022-09-12T23:26:22.360Z,97866.91
2022-09-12T23:28:53.699Z,97872.72
2022-09-12T23:31:24.314Z,97865.72
2022-09-12T23:33:55.931Z,97856.00
2022-09-12T23:36:25.176Z,97852.28
2022-09-12T23:38:56.012Z,97856.38
2022-09-12T23:41:25.252Z,97855.44
2022-09-12T23:43:53.671Z,97849.50
2022-09-12T23:46:22.509Z,97844.56
2022-09-12T23:48:53.144Z,97837.97
2022-09-12T23:51:23.024Z,97832.75
2022-09-12T23:53:51.661Z,97829.16
2022-09-12T23:56:20.050Z,97828.47
2022-09-12T23:58:48.508Z,97820.91
